createdAt,value
2017-11-25T00:00:32.652Z,30.17
2017-11-25T00:03:00.129Z,24.60
2017-11-25T00:05:27.592Z,32.30
2017-11-25T00:07:55.050Z,31.67
2017-11-25T00:10:22.563Z,29.30
2017-11-25T00:12:50.780Z,26.90
2017-11-25T00:15:18.253Z,30.27
2017-11-25T00:17:45.725Z,28.20
2017-11-25T00:20:13.189Z,28.73
2017-11-25T00:22:40.664Z,26.90
2017-11-25T00:25:08.117Z,24.07
2017-11-25T00:27:35.586Z,26.90
2017-11-25T00:30:03.067Z,29.27
2017-11-25T00:32:30.593Z,23.87
2017-11-25T00:34:58.045Z,27.97
2017-11-25T00:37:25.515Z,25.53
2017-11-25T00:39:52.968Z,26.40
2017-11-25T00:42:20.425Z,21.47
2017-11-25T00:44:47.865Z,30.13
2017-11-25T00:47:15.345Z,28.90
2017-11-25T00:49:42.829Z,28.87
2017-11-25T00:52:10.309Z,20.77
2017-11-25T00:54:37.765Z,25.23
2017-11-25T00:57:05.254Z,25.00
2017-11-25T00:59:32.712Z,25.73
2017-11-25T01:02:00.177Z,23.20
2017-11-25T01:04:27.656Z,27.77
2017-11-25T01:06:55.869Z,21.33
2017-11-25T01:09:23.311Z,22.50
2017-11-25T01:11:50.793Z,23.77
2017-11-25T01:14:18.247Z,21.23
2017-11-25T01:16:45.713Z,27.47
2017-11-25T01:19:13.175Z,27.07
2017-11-25T01:21:40.637Z,34.17
2017-11-25T01:24:08.079Z,28.87
2017-11-25T01:26:36.303Z,35.47
2017-11-25T01:29:03.769Z,27.37
2017-11-25T01:31:31.215Z,26.43
2017-11-25T01:33:58.681Z,27.70
2017-11-25T01:36:26.129Z,25.20
2017-11-25T01:38:54.268Z,29.70
2017-11-25T01:41:22.494Z,25.00
2017-11-25T01:43:49.949Z,31.30
2017-11-25T01:46:17.405Z,23.57
2017-11-25T01:48:44.877Z,27.97
2017-11-25T01:51:12.336Z,31.00
2017-11-25T01:53:39.784Z,25.00
2017-11-25T01:56:07.263Z,25.20
2017-11-25T01:58:34.714Z,26.77
2017-11-25T02:01:02.173Z,27.37
2017-11-25T02:03:29.616Z,29.73
2017-11-25T02:05:57.850Z,24.93
2017-11-25T02:08:25.316Z,32.93
2017-11-25T02:10:52.794Z,25.13
2017-11-25T02:13:20.248Z,29.10
2017-11-25T02:15:47.674Z,31.17
2017-11-25T02:18:15.131Z,30.30
2017-11-25T02:20:42.615Z,29.33
2017-11-25T02:23:10.079Z,27.70
2017-11-25T02:25:37.540Z,38.27
2017-11-25T02:28:05.005Z,22.83
2017-11-25T02:30:32.456Z,23.23
2017-11-25T02:32:59.940Z,28.53
2017-11-25T02:35:27.381Z,29.00
2017-11-25T02:37:54.838Z,30.50
2017-11-25T02:40:22.297Z,25.23
2017-11-25T02:42:49.769Z,23.40
2017-11-25T02:45:17.249Z,29.17
2017-11-25T02:47:44.699Z,24.17
2017-11-25T02:50:12.153Z,27.17
2017-11-25T02:52:39.592Z,33.00
2017-11-25T02:55:07.036Z,31.83
2017-11-25T02:57:35.262Z,22.77
2017-11-25T03:00:02.711Z,23.47
2017-11-25T03:02:30.187Z,21.00
2017-11-25T03:04:57.645Z,27.70
2017-11-25T03:07:25.130Z,29.57
2017-11-25T03:09:52.585Z,24.47
2017-11-25T03:12:20.052Z,26.93
2017-11-25T03:14:47.517Z,34.77
2017-11-25T03:17:14.970Z,29.23
2017-11-25T03:19:42.425Z,33.20
2017-11-25T03:22:09.873Z,31.30
2017-11-25T03:24:37.349Z,32.67
2017-11-25T03:27:04.816Z,27.33
2017-11-25T03:29:32.258Z,30.60
2017-11-25T03:31:59.733Z,23.57
2017-11-25T03:34:27.178Z,28.57
2017-11-25T03:36:54.643Z,30.97
2017-11-25T03:39:22.085Z,24.83
2017-11-25T03:41:50.327Z,29.40
2017-11-25T03:44:17.792Z,31.33
2017-11-25T03:46:45.269Z,35.93
2017-11-25T03:49:12.723Z,25.00
2017-11-25T03:51:40.185Z,26.07
2017-11-25T03:54:07.654Z,29.70
2017-11-25T03:56:35.109Z,22.70
2017-11-25T03:59:02.567Z,23.70
2017-11-25T04:01:30.034Z,30.30
2017-11-25T04:03:57.504Z,25.93
2017-11-25T04:06:24.952Z,25.43
2017-11-25T04:08:52.429Z,27.70
2017-11-25T04:11:19.871Z,39.93
2017-11-25T04:13:47.325Z,43.17
2017-11-25T04:16:14.790Z,36.30
2017-11-25T04:18:42.257Z,36.57
2017-11-25T04:21:09.716Z,37.27
2017-11-25T04:23:37.173Z,43.77
2017-11-25T04:26:04.716Z,36.90
2017-11-25T04:28:32.148Z,39.40
2017-11-25T04:31:00.401Z,36.73
2017-11-25T04:33:27.881Z,30.67
2017-11-25T04:35:55.320Z,28.83
2017-11-25T04:38:22.796Z,34.03
2017-11-25T04:40:50.261Z,38.73
2017-11-25T04:43:17.715Z,34.50
2017-11-25T04:45:45.163Z,31.63
2017-11-25T04:48:12.608Z,31.13
2017-11-25T04:50:40.074Z,28.97
2017-11-25T04:53:07.524Z,26.43
2017-11-25T04:55:34.991Z,24.50
2017-11-25T04:58:03.387Z,27.30
2017-11-25T05:00:30.827Z,21.23
2017-11-25T05:02:58.292Z,23.77
2017-11-25T05:05:25.736Z,21.27
2017-11-25T05:07:53.192Z,21.00
2017-11-25T05:10:20.641Z,18.20
2017-11-25T05:12:48.872Z,16.33
2017-11-25T05:15:16.328Z,16.03
2017-11-25T05:17:43.853Z,11.43
2017-11-25T05:20:12.066Z,16.43
2017-11-25T05:22:39.539Z,10.37
2017-11-25T05:25:06.986Z,10.60
2017-11-25T05:27:34.465Z,11.00
2017-11-25T05:30:01.909Z,9.10
2017-11-25T05:32:29.353Z,7.90
2017-11-25T05:34:56.818Z,7.03
2017-11-25T05:37:24.262Z,7.43
2017-11-25T05:39:51.709Z,5.97
2017-11-25T05:42:19.134Z,6.37
2017-11-25T05:44:46.580Z,10.27
2017-11-25T05:47:19.661Z,7.17
2017-11-25T05:49:47.114Z,7.30
2017-11-25T05:52:15.330Z,6.67
2017-11-25T05:54:42.767Z,9.23
2017-11-25T05:57:10.217Z,6.37
2017-11-25T05:59:38.430Z,13.23
2017-11-25T06:02:05.884Z,9.17
2017-11-25T06:04:33.325Z,8.00
2017-11-25T06:07:00.766Z,8.23
2017-11-25T06:09:29.017Z,6.33
2017-11-25T06:11:56.469Z,7.37
2017-11-25T06:14:23.924Z,5.50
2017-11-25T06:16:51.373Z,9.37
2017-11-25T06:19:18.849Z,4.33
2017-11-25T06:21:46.297Z,4.40
2017-11-25T06:24:13.752Z,4.87
2017-11-25T06:26:41.221Z,4.10
2017-11-25T06:29:08.682Z,4.27
2017-11-25T06:31:36.129Z,7.17
2017-11-25T06:34:03.617Z,4.60
2017-11-25T06:36:31.085Z,5.20
2017-11-25T06:38:58.524Z,5.57
2017-11-25T06:41:25.956Z,4.77
2017-11-25T06:43:54.182Z,4.43
2017-11-25T06:46:21.598Z,5.90
2017-11-25T06:48:49.803Z,4.77
2017-11-25T06:51:17.242Z,4.97
2017-11-25T06:53:45.483Z,5.27
2017-11-25T06:56:12.965Z,4.27
2017-11-25T06:58:40.402Z,6.40
2017-11-25T07:01:07.859Z,6.33
2017-11-25T07:03:35.345Z,7.10
2017-11-25T07:06:02.754Z,6.40
2017-11-25T07:08:30.209Z,4.03
2017-11-25T07:10:57.704Z,5.37
2017-11-25T07:13:25.169Z,4.37
2017-11-25T07:15:52.607Z,4.93
2017-11-25T07:18:20.068Z,6.90
2017-11-25T07:20:47.507Z,5.50
2017-11-25T07:23:15.711Z,5.57
2017-11-25T07:25:43.152Z,6.17
2017-11-25T07:28:11.388Z,6.40
2017-11-25T07:30:38.844Z,8.17
2017-11-25T07:33:06.316Z,6.17
2017-11-25T07:35:33.758Z,8.70
2017-11-25T07:38:01.217Z,6.57
2017-11-25T07:40:28.673Z,7.70
2017-11-25T07:42:56.135Z,8.50
2017-11-25T07:45:23.598Z,11.10
2017-11-25T07:47:51.042Z,7.73
2017-11-25T07:50:19.255Z,8.33
2017-11-25T07:52:46.713Z,7.97
2017-11-25T07:55:14.201Z,8.07
2017-11-25T07:57:41.640Z,6.77
2017-11-25T08:00:09.098Z,10.87
2017-11-25T08:02:36.643Z,13.07
2017-11-25T08:05:04.896Z,9.03
2017-11-25T08:07:32.353Z,8.93
2017-11-25T08:09:59.817Z,14.07
2017-11-25T08:12:27.283Z,8.30
2017-11-25T08:14:54.733Z,10.70
2017-11-25T08:17:22.180Z,7.70
2017-11-25T08:19:49.808Z,9.03
2017-11-25T08:22:17.408Z,6.50
2017-11-25T08:42:05.250Z,9.13
2017-11-25T09:07:38.416Z,8.87
2017-11-25T09:10:06.638Z,10.33
2017-11-25T09:12:34.110Z,7.53
2017-11-25T09:15:01.575Z,10.50
2017-11-25T09:17:29.056Z,12.30
2017-11-25T09:19:56.505Z,9.57
2017-11-25T09:22:23.961Z,8.23
2017-11-25T09:24:51.435Z,7.13
2017-11-25T09:27:18.884Z,7.90
2017-11-25T09:29:46.344Z,4.53
2017-11-25T09:32:13.826Z,6.40
2017-11-25T09:34:41.283Z,8.60
2017-11-25T09:37:08.747Z,8.07
2017-11-25T09:39:36.207Z,7.60
2017-11-25T09:42:03.679Z,11.47
2017-11-25T09:44:31.128Z,11.33
2017-11-25T09:46:58.588Z,10.40
2017-11-25T09:49:26.046Z,16.43
2017-11-25T09:51:53.510Z,14.03
2017-11-25T09:54:20.993Z,14.70
2017-11-25T09:56:48.468Z,13.27
2017-11-25T09:59:15.924Z,13.63
2017-11-25T10:01:43.393Z,11.70
2017-11-25T10:04:10.857Z,19.90
2017-11-25T10:06:38.316Z,18.50
2017-11-25T10:09:05.773Z,17.20
2017-11-25T10:11:33.236Z,16.83
2017-11-25T10:14:00.684Z,13.07
2017-11-25T10:16:28.133Z,11.47
2017-11-25T10:18:55.591Z,16.47
2017-11-25T10:21:23.068Z,18.67
2017-11-25T10:23:50.520Z,16.27
2017-11-25T10:26:17.978Z,17.10
2017-11-25T10:28:45.454Z,15.50
2017-11-25T10:31:12.901Z,11.37
2017-11-25T10:33:40.370Z,14.30
2017-11-25T10:36:07.840Z,13.30
2017-11-25T10:38:35.298Z,13.70
2017-11-25T10:41:02.754Z,8.83
2017-11-25T10:43:30.220Z,13.33
2017-11-25T10:45:57.686Z,14.10
2017-11-25T10:48:25.165Z,12.50
2017-11-25T10:50:52.608Z,11.57
2017-11-25T10:53:20.083Z,11.77
2017-11-25T10:55:47.542Z,8.83
2017-11-25T10:58:15.013Z,20.53
2017-11-25T11:18:00.819Z,5.97
2017-11-25T11:20:28.273Z,6.50
2017-11-25T11:22:55.737Z,6.17
2017-11-25T11:25:23.199Z,9.73
2017-11-25T11:27:50.708Z,9.60
2017-11-25T11:30:18.173Z,16.20
2017-11-25T11:32:45.641Z,9.20
2017-11-25T11:35:13.094Z,11.27
2017-11-25T11:37:40.560Z,5.40
2017-11-25T11:40:08.412Z,9.93
2017-11-25T11:42:35.886Z,9.83
2017-11-25T12:02:21.633Z,5.10
2017-11-25T12:04:49.102Z,5.97
2017-11-25T12:07:16.563Z,9.20
2017-11-25T12:09:44.025Z,3.80
2017-11-25T12:12:11.484Z,5.77
2017-11-25T12:14:38.945Z,4.40
2017-11-25T12:17:06.430Z,6.87
2017-11-25T12:19:34.648Z,7.40
2017-11-25T12:22:02.101Z,9.60
2017-11-25T12:24:29.563Z,7.10
2017-11-25T12:26:57.028Z,6.87
2017-11-25T12:29:24.485Z,7.43
2017-11-25T12:31:51.938Z,8.70
2017-11-25T12:34:19.394Z,5.57
2017-11-25T12:36:46.849Z,6.30
2017-11-25T12:39:15.076Z,5.13
2017-11-25T12:41:42.542Z,5.83
2017-11-25T12:44:09.990Z,7.60
2017-11-25T12:46:37.453Z,8.17
2017-11-25T12:49:04.910Z,5.43
2017-11-25T12:51:32.364Z,8.03
2017-11-25T12:53:59.833Z,8.00
2017-11-25T12:56:27.259Z,6.50
2017-11-25T12:58:55.487Z,4.30
2017-11-25T13:01:22.944Z,7.60
2017-11-25T13:21:09.425Z,7.67
2017-11-25T13:23:36.892Z,6.60
2017-11-25T13:26:04.357Z,9.57
2017-11-25T13:28:31.830Z,15.67
2017-11-25T13:30:59.286Z,9.67
2017-11-25T13:33:26.760Z,10.70
2017-11-25T13:35:55.002Z,11.90
2017-11-25T13:38:22.467Z,11.90
2017-11-25T13:40:49.929Z,10.83
2017-11-25T13:43:17.385Z,8.77
2017-11-25T13:45:44.860Z,9.00
2017-11-25T13:48:13.109Z,6.93
2017-11-25T13:50:40.568Z,15.80
2017-11-25T13:53:08.043Z,9.40
2017-11-25T13:55:35.501Z,8.00
2017-11-25T13:58:02.961Z,9.90
2017-11-25T14:00:30.434Z,9.30
2017-11-25T14:02:57.889Z,9.37
2017-11-25T14:05:25.372Z,8.60
2017-11-25T14:07:52.820Z,8.37
2017-11-25T14:10:20.314Z,10.00
2017-11-25T14:12:47.782Z,10.20
2017-11-25T14:15:15.238Z,11.93
2017-11-25T14:17:42.715Z,7.80
2017-11-25T14:20:10.177Z,10.57
2017-11-25T14:22:37.640Z,7.73
2017-11-25T14:25:05.890Z,7.53
2017-11-25T14:27:33.355Z,18.33
2017-11-25T14:30:00.818Z,13.40
2017-11-25T14:32:28.284Z,10.77
2017-11-25T14:34:55.732Z,9.93
2017-11-25T14:37:23.201Z,8.90
2017-11-25T14:39:50.640Z,9.40
2017-11-25T14:42:18.100Z,11.00
2017-11-25T14:44:45.575Z,10.67
2017-11-25T14:47:13.037Z,9.67
2017-11-25T14:49:40.569Z,13.10
2017-11-25T14:52:08.057Z,10.07
2017-11-25T14:54:35.553Z,11.50
2017-11-25T14:57:03.828Z,13.53
2017-11-25T14:59:31.281Z,10.40
2017-11-25T15:01:58.744Z,10.23
2017-11-25T15:04:26.205Z,10.67
2017-11-25T15:06:53.732Z,9.00
2017-11-25T15:09:21.959Z,12.63
2017-11-25T15:11:49.430Z,11.77
2017-11-25T15:14:16.905Z,8.80
2017-11-25T15:16:45.155Z,14.70
2017-11-25T15:19:12.607Z,17.00
2017-11-25T15:21:40.080Z,7.67
2017-11-25T15:24:07.545Z,8.60
2017-11-25T15:26:35.010Z,6.33
2017-11-25T15:29:02.461Z,9.43
2017-11-25T15:31:29.937Z,9.63
2017-11-25T15:33:57.404Z,14.37
2017-11-25T15:36:24.854Z,11.70
2017-11-25T15:56:12.017Z,10.40
2017-11-25T15:58:39.478Z,15.53
2017-11-25T16:01:06.945Z,24.00
2017-11-25T16:03:34.405Z,20.07
2017-11-25T16:06:01.881Z,13.87
2017-11-25T16:08:29.355Z,19.37
2017-11-25T16:10:56.815Z,16.57
2017-11-25T16:13:24.289Z,16.47
2017-11-25T16:15:51.753Z,10.70
2017-11-25T16:18:19.220Z,15.57
2017-11-25T16:20:46.674Z,21.37
2017-11-25T16:23:14.137Z,20.30
2017-11-25T16:25:41.600Z,13.00
2017-11-25T16:28:09.065Z,10.03
2017-11-25T16:30:36.530Z,15.00
2017-11-25T16:33:03.987Z,12.80
2017-11-25T16:35:31.443Z,13.63
2017-11-25T16:37:58.913Z,21.63
2017-11-25T16:40:26.364Z,37.23
2017-11-25T16:42:53.826Z,27.57
2017-11-25T16:45:21.281Z,14.50
2017-11-25T16:47:48.749Z,23.53
2017-11-25T16:50:16.215Z,16.70
2017-11-25T16:52:43.665Z,19.13
2017-11-25T16:55:11.184Z,14.90
2017-11-25T16:57:38.782Z,17.27
2017-11-25T17:00:06.623Z,12.33
2017-11-25T17:02:34.094Z,17.20
2017-11-25T17:05:01.557Z,13.00
2017-11-25T17:07:29.843Z,11.23
2017-11-25T17:09:57.298Z,13.07
2017-11-25T17:12:24.738Z,15.17
2017-11-25T17:14:52.948Z,13.83
2017-11-25T17:17:20.409Z,14.70
2017-11-25T17:19:47.853Z,13.17
2017-11-25T17:22:15.325Z,13.80
2017-11-25T17:24:42.786Z,14.13
2017-11-25T17:27:10.245Z,14.80
2017-11-25T17:29:37.725Z,23.30
2017-11-25T17:32:05.179Z,11.17
2017-11-25T17:34:32.634Z,9.30
2017-11-25T17:37:00.072Z,5.87
2017-11-25T17:39:28.286Z,7.57
2017-11-25T17:41:55.740Z,4.77
2017-11-25T17:44:23.216Z,4.13
2017-11-25T17:46:50.652Z,4.37
2017-11-25T17:49:18.121Z,6.67
2017-11-25T17:51:45.642Z,5.00
2017-11-25T17:54:13.101Z,3.63
2017-11-25T17:56:40.542Z,7.57
2017-11-25T17:59:08.006Z,4.93
2017-11-25T18:01:35.451Z,3.97
2017-11-25T18:04:02.913Z,3.47
2017-11-25T18:06:30.428Z,5.00
2017-11-25T18:08:57.898Z,3.37
2017-11-25T18:11:25.408Z,2.93
2017-11-25T18:13:52.865Z,4.20
2017-11-25T18:16:20.308Z,3.80
2017-11-25T18:18:47.778Z,2.70
2017-11-25T18:21:15.224Z,2.80
2017-11-25T18:23:43.445Z,3.37
2017-11-25T18:26:10.892Z,2.93
2017-11-25T18:28:38.357Z,3.47
2017-11-25T18:31:05.811Z,3.13
2017-11-25T18:33:33.278Z,3.60
2017-11-25T18:36:00.742Z,2.70
2017-11-25T18:38:28.206Z,2.40
2017-11-25T18:40:55.668Z,2.70
2017-11-25T18:43:23.141Z,2.97
2017-11-25T18:45:50.608Z,3.53
2017-11-25T18:48:18.058Z,2.93
2017-11-25T18:50:45.516Z,2.80
2017-11-25T18:53:12.964Z,2.43
2017-11-25T18:55:40.473Z,2.40
2017-11-25T18:58:07.929Z,2.80
2017-11-25T19:00:35.390Z,1.80
2017-11-25T19:03:02.838Z,2.07
2017-11-25T19:05:30.304Z,2.07
2017-11-25T19:07:57.766Z,1.93
2017-11-25T19:10:25.230Z,2.53
2017-11-25T19:12:52.695Z,2.83
2017-11-25T19:15:20.154Z,8.60
2017-11-25T19:17:47.607Z,5.17
2017-11-25T19:20:15.065Z,3.67
2017-11-25T19:22:42.530Z,2.83
2017-11-25T19:25:09.995Z,3.50
2017-11-25T19:27:37.447Z,4.10
2017-11-25T19:30:04.918Z,8.17
2017-11-25T19:32:32.360Z,4.87
2017-11-25T19:34:59.828Z,4.27
2017-11-25T19:37:27.278Z,3.83
2017-11-25T19:39:55.520Z,4.20
2017-11-25T19:42:22.958Z,4.10
2017-11-25T19:44:50.420Z,5.33
2017-11-25T19:47:17.868Z,9.33
2017-11-25T19:49:45.328Z,4.57
2017-11-25T19:52:12.781Z,7.40
2017-11-25T19:54:40.245Z,7.30
2017-11-25T19:57:07.693Z,5.20
2017-11-25T19:59:35.912Z,7.73
2017-11-25T20:02:03.358Z,6.77
2017-11-25T20:04:30.825Z,4.53
2017-11-25T20:06:58.271Z,7.73
2017-11-25T20:09:25.717Z,5.33
2017-11-25T20:11:53.944Z,5.20
2017-11-25T20:14:21.394Z,5.57
2017-11-25T20:16:48.861Z,4.67
2017-11-25T20:19:16.319Z,4.40
2017-11-25T20:21:43.778Z,3.40
2017-11-25T20:24:11.219Z,3.53
2017-11-25T20:26:38.702Z,12.10
2017-11-25T20:29:06.161Z,3.50
2017-11-25T20:31:33.625Z,6.03
2017-11-25T20:34:01.093Z,11.90
2017-11-25T20:36:28.539Z,5.23
2017-11-25T20:38:55.990Z,5.27
2017-11-25T20:41:23.506Z,5.37
2017-11-25T20:43:50.917Z,5.20
2017-11-25T20:46:18.384Z,5.60
2017-11-25T20:48:45.830Z,10.60
2017-11-25T20:51:14.060Z,10.10
2017-11-25T20:53:41.506Z,8.80
2017-11-25T20:56:08.966Z,8.80
2017-11-25T20:58:36.433Z,10.60
2017-11-25T21:01:03.888Z,7.10
2017-11-25T21:03:31.351Z,7.70
2017-11-25T21:05:58.825Z,9.00
2017-11-25T21:08:26.269Z,10.00
2017-11-25T21:10:53.734Z,6.27
2017-11-25T21:13:21.189Z,8.50
2017-11-25T21:15:48.652Z,8.70
2017-11-25T21:18:16.113Z,11.10
2017-11-25T21:20:43.584Z,7.60
2017-11-25T21:23:11.046Z,8.87
2017-11-25T21:25:38.521Z,11.43
2017-11-25T21:28:06.033Z,8.90
2017-11-25T21:30:34.478Z,8.20
2017-11-25T21:33:01.949Z,13.30
2017-11-25T21:35:29.413Z,12.00
2017-11-25T21:37:56.881Z,11.40
2017-11-25T21:40:24.336Z,21.97
2017-11-25T21:42:51.789Z,7.73
2017-11-25T21:45:19.252Z,10.37
2017-11-25T21:47:46.712Z,12.33
2017-11-25T21:50:14.164Z,11.50
2017-11-25T21:52:41.625Z,9.97
2017-11-25T21:55:09.072Z,9.50
2017-11-25T21:57:36.539Z,13.37
2017-11-25T22:00:03.993Z,11.33
2017-11-25T22:02:31.448Z,17.60
2017-11-25T22:04:59.667Z,13.43
2017-11-25T22:07:27.116Z,14.90
2017-11-25T22:09:54.575Z,20.30
2017-11-25T22:12:22.033Z,17.40
2017-11-25T22:14:49.489Z,18.63
2017-11-25T22:17:16.948Z,13.43
2017-11-25T22:19:44.392Z,14.67
2017-11-25T22:22:12.634Z,11.80
2017-11-25T22:24:40.094Z,9.53
2017-11-25T22:27:07.553Z,8.23
2017-11-25T22:29:35.001Z,9.57
2017-11-25T22:32:02.456Z,12.40
2017-11-25T22:34:29.908Z,9.37
2017-11-25T22:36:57.388Z,6.97
2017-11-25T22:39:24.846Z,10.60
2017-11-25T22:41:52.306Z,13.93
2017-11-25T22:44:19.792Z,9.93
2017-11-25T22:46:47.257Z,7.70
2017-11-25T22:49:15.465Z,12.43
2017-11-25T22:51:42.914Z,10.77
2017-11-25T22:54:10.376Z,8.60
2017-11-25T22:56:37.866Z,12.23
2017-11-25T22:59:06.081Z,8.47
2017-11-25T23:01:33.538Z,7.10
2017-11-25T23:04:01.000Z,7.73
2017-11-25T23:06:28.434Z,11.60
2017-11-25T23:08:56.647Z,6.77
2017-11-25T23:11:24.071Z,5.90
2017-11-25T23:13:52.289Z,13.00
2017-11-25T23:16:19.749Z,7.50
2017-11-25T23:18:47.208Z,8.07
2017-11-25T23:21:14.675Z,11.77
2017-11-25T23:23:42.125Z,11.20
2017-11-25T23:26:09.596Z,11.33
2017-11-25T23:28:37.029Z,7.13
2017-11-25T23:31:05.240Z,8.37
2017-11-25T23:33:32.681Z,12.00
2017-11-25T23:36:00.153Z,9.50
2017-11-25T23:38:27.606Z,8.37
2017-11-25T23:40:55.828Z,7.70
2017-11-25T23:43:23.293Z,11.27
2017-11-25T23:45:50.745Z,9.53
2017-11-25T23:48:18.205Z,6.10
2017-11-25T23:50:45.656Z,7.63
2017-11-25T23:53:13.123Z,11.77
2017-11-25T23:55:40.565Z,10.10
2017-11-25T23:58:08.031Z,6.97
